Time;durP1;ratioP1;P1;durP2;ratioP2;P2;SDS_P1;SDS_P2;PMS_P1;PMS_P2;Temp;Humidity;BMP_temperature;BMP_pressure;BME280_temperature;BME280_humidity;BME280_pressure;Samples;Min_cycle;Max_cycle;Signal;HPM_P1;HPM_P2
2021/04/02 00:02:23;;;;;;;12.02;2.30;;;4.40;91.00;;;;;;5054740;28;20040;-71
2021/04/02 00:04:49;;;;;;;11.00;2.42;;;4.50;90.90;;;;;;5054924;28;20033;-71
2021/04/02 00:07:15;;;;;;;9.40;1.90;;;4.50;91.00;;;;;;5055023;28;20498;-71
2021/04/02 00:09:41;;;;;;;11.70;2.22;;;4.40;91.10;;;;;;5054954;28;20095;-71
2021/04/02 00:12:08;;;;;;;12.25;2.70;;;4.40;91.10;;;;;;5053259;28;20049;-71
2021/04/02 00:14:33;;;;;;;8.80;3.75;;;4.50;91.00;;;;;;5054019;28;20202;-71
2021/04/02 00:16:59;;;;;;;6.07;2.70;;;4.40;91.00;;;;;;5054192;28;20040;-71
2021/04/02 00:19:25;;;;;;;8.57;3.35;;;4.40;91.10;;;;;;5036365;28;20140;-71
2021/04/02 00:21:51;;;;;;;6.68;2.20;;;4.40;91.30;;;;;;5053944;28;20381;-71
2021/04/02 00:24:16;;;;;;;6.35;2.35;;;4.40;91.30;;;;;;5053868;28;20033;-71
2021/04/02 00:26:43;;;;;;;9.57;2.58;;;4.40;91.40;;;;;;5053689;28;20052;-71
2021/04/02 00:29:09;;;;;;;11.43;3.05;;;4.30;91.50;;;;;;5054166;28;20047;-71
2021/04/02 00:31:35;;;;;;;10.55;3.05;;;4.40;91.60;;;;;;5054006;28;20116;-71
2021/04/02 00:34:02;;;;;;;9.85;2.65;;;4.30;91.70;;;;;;5053850;28;20091;-71
2021/04/02 00:36:28;;;;;;;10.75;3.45;;;4.30;91.80;;;;;;5053646;28;20039;-71
2021/04/02 00:38:54;;;;;;;7.20;3.22;;;4.40;92.00;;;;;;5053618;28;20045;-71
2021/04/02 00:41:20;;;;;;;6.20;2.75;;;4.30;92.10;;;;;;5053577;28;20099;-71
2021/04/02 00:43:49;;;;;;;9.38;2.88;;;4.40;92.10;;;;;;5053671;28;20083;-71
2021/04/02 00:46:18;;;;;;;10.40;3.15;;;4.40;92.30;;;;;;5053475;28;20407;-71
2021/04/02 00:48:44;;;;;;;10.43;3.35;;;4.40;92.30;;;;;;5053694;28;20088;-71
2021/04/02 00:51:12;;;;;;;13.65;3.78;;;4.40;92.40;;;;;;5053366;28;20435;-71
2021/04/02 00:53:41;;;;;;;18.48;3.38;;;4.40;92.40;;;;;;5054143;28;20052;-71
2021/04/02 00:56:09;;;;;;;13.43;3.67;;;4.50;92.40;;;;;;5053270;28;20033;-71
2021/04/02 00:58:35;;;;;;;11.82;3.85;;;4.50;92.60;;;;;;5053519;28;20045;-71
2021/04/02 01:01:03;;;;;;;12.70;4.85;;;4.50;92.70;;;;;;5053727;28;20041;-71
2021/04/02 01:03:29;;;;;;;12.07;3.97;;;4.50;92.80;;;;;;5053279;28;20037;-71
2021/04/02 01:05:58;;;;;;;11.20;3.78;;;4.50;92.80;;;;;;5053565;28;20116;-71
2021/04/02 01:08:27;;;;;;;10.35;4.22;;;4.50;92.90;;;;;;5053352;28;20037;-71
2021/04/02 01:10:54;;;;;;;13.00;4.50;;;4.50;92.90;;;;;;5053079;28;20396;-71
2021/04/02 01:13:42;;;;;;;9.82;4.13;;;4.60;92.90;;;;;;5053163;28;20041;-71
2021/04/02 01:16:11;;;;;;;15.32;4.10;;;4.60;92.90;;;;;;5053132;28;20097;-71
2021/04/02 01:19:01;;;;;;;14.32;4.97;;;4.60;92.70;;;;;;5053237;28;20476;-71
2021/04/02 01:21:55;;;;;;;14.65;4.70;;;4.60;92.80;;;;;;5053348;28;20467;-71
2021/04/02 01:24:23;;;;;;;13.63;4.32;;;4.60;92.80;;;;;;5046878;28;20049;-71
2021/04/02 01:27:20;;;;;;;12.13;4.63;;;4.60;92.80;;;;;;5057395;28;20425;-71
2021/04/02 01:29:55;;;;;;;13.70;4.28;;;4.70;92.70;;;;;;5057430;28;20512;-71
2021/04/02 01:32:28;;;;;;;11.25;4.03;;;4.70;92.60;;;;;;5057235;28;20378;-71
2021/04/02 01:35:10;;;;;;;11.45;3.50;;;4.70;92.40;;;;;;5056977;28;20053;-71
2021/04/02 01:37:40;;;;;;;13.38;4.20;;;4.70;92.50;;;;;;5057073;28;20041;-71
2021/04/02 01:40:09;;;;;;;11.90;3.45;;;4.70;92.40;;;;;;5057405;28;20116;-71
2021/04/02 01:42:38;;;;;;;12.93;4.13;;;4.70;92.40;;;;;;5056982;28;20068;-71
2021/04/02 01:45:06;;;;;;;9.55;3.30;;;4.80;92.30;;;;;;5056794;28;20239;-71
2021/04/02 01:47:33;;;;;;;8.70;3.25;;;4.80;92.10;;;;;;5057079;28;20041;-71
2021/04/02 01:50:00;;;;;;;9.77;3.70;;;4.70;92.10;;;;;;5057075;28;20033;-71
2021/04/02 01:52:28;;;;;;;10.15;3.47;;;4.80;92.00;;;;;;5056800;28;20411;-71
2021/04/02 01:54:55;;;;;;;13.63;3.65;;;4.80;92.00;;;;;;5056585;28;20063;-71
2021/04/02 01:57:22;;;;;;;8.88;3.47;;;4.80;91.90;;;;;;5039046;28;20033;-71
2021/04/02 01:59:49;;;;;;;10.55;3.70;;;4.70;91.90;;;;;;5056817;28;20091;-71
2021/04/02 02:02:16;;;;;;;13.27;2.92;;;4.70;91.90;;;;;;5056705;28;20045;-71
2021/04/02 02:04:45;;;;;;;10.20;3.40;;;4.70;91.90;;;;;;5056329;28;20443;-71
2021/04/02 02:07:11;;;;;;;13.40;3.55;;;4.70;91.90;;;;;;5056423;28;20033;-71
2021/04/02 02:09:41;;;;;;;14.00;4.10;;;4.60;92.00;;;;;;5056526;28;20037;-71
2021/04/02 02:12:12;;;;;;;12.32;3.13;;;4.60;92.30;;;;;;5056294;28;20128;-71
2021/04/02 02:14:40;;;;;;;11.55;3.70;;;4.60;92.00;;;;;;5056807;28;20431;-70
2021/04/02 02:17:10;;;;;;;12.32;3.45;;;4.60;92.00;;;;;;5056362;28;20051;-71
2021/04/02 02:19:39;;;;;;;12.20;3.35;;;4.60;92.00;;;;;;5038599;28;20044;-71
2021/04/02 02:22:07;;;;;;;16.30;3.65;;;4.60;92.00;;;;;;5056704;28;20041;-71
2021/04/02 02:24:35;;;;;;;8.13;2.70;;;4.60;91.90;;;;;;5056154;28;20037;-71
2021/04/02 02:27:01;;;;;;;13.40;3.63;;;4.70;91.80;;;;;;5056148;28;20045;-71
2021/04/02 02:29:28;;;;;;;16.13;4.00;;;4.70;91.70;;;;;;5056204;28;20037;-71
2021/04/02 02:31:55;;;;;;;9.35;3.22;;;4.70;91.70;;;;;;5055874;28;20044;-71
2021/04/02 02:34:21;;;;;;;12.73;3.17;;;4.70;91.70;;;;;;5056102;28;20163;-71
2021/04/02 02:36:47;;;;;;;13.57;3.78;;;4.70;91.70;;;;;;5055079;28;20424;-71
2021/04/02 02:39:15;;;;;;;14.57;3.65;;;4.80;91.80;;;;;;5056042;28;20032;-71
2021/04/02 02:41:41;;;;;;;15.32;3.55;;;4.80;91.60;;;;;;5056232;28;20120;-71
2021/04/02 02:44:08;;;;;;;10.32;3.15;;;4.80;91.60;;;;;;5056102;28;20041;-71
2021/04/02 02:46:34;;;;;;;12.48;3.55;;;4.80;91.40;;;;;;5055719;28;20068;-71
2021/04/02 02:49:04;;;;;;;12.25;3.55;;;4.90;91.30;;;;;;5055865;28;20033;-71
2021/04/02 02:51:32;;;;;;;17.20;3.55;;;4.90;91.30;;;;;;5056110;28;20546;-71
2021/04/02 02:54:01;;;;;;;14.50;3.28;;;4.90;91.30;;;;;;5056062;28;20472;-71
2021/04/02 02:56:29;;;;;;;15.32;4.50;;;4.90;91.20;;;;;;5055416;28;20116;-71
2021/04/02 02:58:57;;;;;;;19.25;5.53;;;4.90;91.20;;;;;;5055575;28;20552;-71
2021/04/02 03:01:24;;;;;;;11.77;3.03;;;5.00;91.20;;;;;;5055481;28;20049;-71
2021/04/02 03:03:53;;;;;;;24.55;3.80;;;5.00;91.00;;;;;;5055707;28;20044;-71
2021/04/02 03:06:22;;;;;;;13.57;3.35;;;5.00;90.90;;;;;;5055393;28;20089;-71
2021/04/02 03:08:51;;;;;;;9.27;2.97;;;5.10;90.80;;;;;;5037926;28;20094;-71
2021/04/02 03:11:19;;;;;;;20.02;2.88;;;5.10;90.60;;;;;;5055223;28;20047;-71
2021/04/02 03:13:46;;;;;;;17.20;3.70;;;5.20;90.30;;;;;;5055243;28;20043;-71
2021/04/02 03:16:14;;;;;;;12.73;2.65;;;5.10;90.10;;;;;;5055124;28;20108;-71
2021/04/02 03:18:42;;;;;;;11.65;2.55;;;5.20;90.30;;;;;;5055170;28;20115;-71
2021/04/02 03:21:09;;;;;;;12.63;2.67;;;5.20;90.30;;;;;;5055144;28;20043;-71
2021/04/02 03:23:37;;;;;;;12.60;2.13;;;5.20;90.30;;;;;;5055052;28;20076;-71
2021/04/02 03:26:04;;;;;;;13.13;2.90;;;5.20;90.20;;;;;;5055001;28;20041;-71
2021/04/02 03:28:31;;;;;;;13.73;2.78;;;5.20;90.10;;;;;;5055200;28;20045;-71
2021/04/02 03:30:56;;;;;;;11.90;2.63;;;5.20;90.20;;;;;;5055057;28;20044;-71
2021/04/02 03:33:35;;;;;;;13.93;3.08;;;5.20;90.10;;;;;;5055109;28;20052;-71
2021/04/02 03:36:09;;;;;;;13.38;3.45;;;5.20;90.10;;;;;;5054682;28;20045;-71
2021/04/02 03:38:39;;;;;;;12.75;2.53;;;5.20;90.00;;;;;;5054811;28;20036;-71
2021/04/02 03:41:11;;;;;;;9.18;2.78;;;5.20;89.60;;;;;;5054734;28;20049;-71
2021/04/02 03:43:38;;;;;;;14.70;2.80;;;5.30;89.20;;;;;;5054815;28;20435;-71
2021/04/02 03:46:04;;;;;;;13.27;2.63;;;5.20;89.30;;;;;;5054204;28;20082;-71
2021/04/02 03:48:36;;;;;;;9.95;2.72;;;5.20;89.20;;;;;;5054621;28;20071;-71
2021/04/02 03:51:04;;;;;;;12.52;2.85;;;5.20;88.90;;;;;;5054674;28;20048;-71
2021/04/02 03:53:35;;;;;;;8.05;2.65;;;5.20;89.20;;;;;;5054716;28;20068;-71
2021/04/02 03:56:03;;;;;;;7.00;2.30;;;5.20;89.20;;;;;;5036733;28;20037;-71
2021/04/02 03:58:30;;;;;;;10.90;2.15;;;5.20;89.10;;;;;;5054613;28;20049;-71
2021/04/02 04:01:08;;;;;;;9.75;2.10;;;5.30;88.90;;;;;;5036819;28;20033;-71
2021/04/02 04:03:36;;;;;;;12.70;2.78;;;5.30;88.60;;;;;;5054375;28;20116;-71
2021/04/02 04:06:04;;;;;;;11.98;3.15;;;5.30;88.60;;;;;;5053968;28;20607;-71
2021/04/02 04:08:31;;;;;;;9.10;2.72;;;5.30;87.90;;;;;;5054503;28;20041;-71
2021/04/02 04:10:58;;;;;;;8.93;2.78;;;5.40;87.70;;;;;;5036346;28;20131;-71
2021/04/02 04:13:25;;;;;;;10.77;3.20;;;5.40;88.00;;;;;;5054282;28;20372;-71
2021/04/02 04:15:54;;;;;;;8.80;2.50;;;5.40;88.20;;;;;;5053749;28;20076;-71
2021/04/02 04:18:21;;;;;;;17.35;2.75;;;5.40;88.00;;;;;;5054237;28;20033;-71
2021/04/02 04:20:48;;;;;;;9.48;2.50;;;5.40;86.90;;;;;;5054002;28;20048;-71
2021/04/02 04:23:14;;;;;;;9.02;2.72;;;5.40;87.00;;;;;;5054197;28;20480;-71
2021/04/02 04:25:41;;;;;;;14.57;3.17;;;5.40;86.00;;;;;;5053813;28;20041;-71
2021/04/02 04:28:10;;;;;;;9.02;2.45;;;5.40;85.70;;;;;;5054070;28;20462;-71
2021/04/02 04:30:37;;;;;;;13.60;3.25;;;5.50;85.80;;;;;;5054010;28;20040;-71
2021/04/02 04:33:04;;;;;;;15.85;3.13;;;5.50;85.80;;;;;;5054124;28;20036;-71
2021/04/02 04:35:31;;;;;;;7.10;3.20;;;5.50;85.70;;;;;;5053428;28;20128;-71
2021/04/02 04:37:58;;;;;;;15.63;2.63;;;5.50;85.90;;;;;;5053680;28;20037;-71
2021/04/02 04:40:25;;;;;;;9.77;4.05;;;5.50;85.70;;;;;;5053876;28;20064;-71
2021/04/02 04:42:51;;;;;;;10.82;2.75;;;5.50;86.20;;;;;;5054257;28;20049;-71
2021/04/02 04:45:21;;;;;;;8.80;2.40;;;5.50;86.20;;;;;;5053502;28;20041;-71
2021/04/02 04:47:47;;;;;;;10.55;3.10;;;5.50;86.40;;;;;;5035953;28;20040;-71
2021/04/02 04:50:14;;;;;;;5.70;2.60;;;5.50;86.10;;;;;;5054016;28;20040;-71
2021/04/02 04:52:51;;;;;;;7.45;2.55;;;5.50;86.20;;;;;;5053894;28;20087;-71
2021/04/02 04:55:19;;;;;;;11.25;2.38;;;5.40;86.20;;;;;;5053237;28;20114;-71
2021/04/02 04:57:49;;;;;;;8.50;3.28;;;5.50;86.00;;;;;;5053140;28;20044;-71
2021/04/02 05:00:17;;;;;;;8.65;2.35;;;5.50;85.80;;;;;;5053451;28;20041;-71
2021/04/02 05:02:45;;;;;;;8.60;2.65;;;5.50;85.40;;;;;;5053740;28;20041;-71
2021/04/02 05:05:25;;;;;;;13.45;3.85;;;5.40;85.20;;;;;;5053097;28;20033;-71
2021/04/02 05:07:53;;;;;;;11.43;2.30;;;5.50;85.30;;;;;;5053465;28;20442;-71
2021/04/02 05:10:20;;;;;;;13.82;2.30;;;5.50;85.40;;;;;;5053349;28;20048;-71
2021/04/02 05:12:48;;;;;;;10.10;2.38;;;5.50;85.30;;;;;;5053106;28;20086;-71
2021/04/02 05:15:16;;;;;;;15.60;2.47;;;5.50;85.10;;;;;;5053008;28;20116;-71
2021/04/02 05:17:42;;;;;;;10.48;2.05;;;5.50;84.60;;;;;;5053114;28;20071;-71
2021/04/02 05:20:09;;;;;;;9.68;2.35;;;5.50;84.90;;;;;;5053324;28;20073;-71
2021/04/02 05:22:36;;;;;;;8.85;2.85;;;5.40;84.70;;;;;;5053087;28;20052;-71
2021/04/02 05:25:02;;;;;;;8.75;2.22;;;5.50;84.70;;;;;;5053331;28;20033;-71
2021/04/02 05:27:28;;;;;;;5.03;2.38;;;5.50;84.70;;;;;;5053013;28;20041;-71
2021/04/02 05:29:54;;;;;;;9.90;2.05;;;5.50;84.80;;;;;;5053003;28;20413;-71
2021/04/02 05:32:20;;;;;;;11.13;2.35;;;5.50;84.40;;;;;;5053286;28;20073;-71
2021/04/02 05:34:46;;;;;;;5.68;1.98;;;5.40;84.30;;;;;;5053175;28;20043;-72
2021/04/02 05:37:12;;;;;;;5.85;2.05;;;5.40;84.50;;;;;;5053055;28;20041;-71
2021/04/02 05:39:38;;;;;;;7.78;1.92;;;5.50;84.10;;;;;;5035104;28;20060;-71
2021/04/02 05:42:09;;;;;;;6.72;1.83;;;5.50;84.10;;;;;;5053284;28;20041;-71
2021/04/02 05:44:37;;;;;;;5.90;2.05;;;5.50;84.20;;;;;;5052843;28;20400;-71
2021/04/02 05:47:05;;;;;;;7.57;1.83;;;5.50;83.70;;;;;;5052711;28;20048;-71
2021/04/02 05:49:32;;;;;;;7.72;2.15;;;5.50;83.60;;;;;;5052855;28;20044;-71
2021/04/02 05:51:59;;;;;;;8.20;2.10;;;5.50;83.90;;;;;;5052749;28;20429;-71
2021/04/02 05:54:34;;;;;;;10.25;2.40;;;5.50;84.30;;;;;;5052598;28;20496;-71
2021/04/02 05:57:00;;;;;;;7.78;1.63;;;5.50;84.00;;;;;;5053408;28;20091;-71
2021/04/02 05:59:26;;;;;;;7.35;1.73;;;5.50;83.20;;;;;;5052978;28;20043;-71
2021/04/02 06:01:52;;;;;;;6.68;2.45;;;5.50;82.60;;;;;;5053273;28;20041;-71
2021/04/02 06:04:19;;;;;;;13.10;2.40;;;5.50;82.90;;;;;;5052789;28;20521;-71
2021/04/02 06:06:46;;;;;;;9.43;2.60;;;5.50;82.70;;;;;;5034690;28;20128;-71
2021/04/02 06:09:12;;;;;;;4.85;2.00;;;5.50;81.70;;;;;;5053181;28;20119;-71
2021/04/02 06:11:38;;;;;;;9.00;2.75;;;5.60;81.10;;;;;;5056510;28;20044;-71
2021/04/02 06:14:04;;;;;;;11.55;2.58;;;5.60;81.20;;;;;;5056479;28;20033;-71
2021/04/02 06:16:30;;;;;;;8.00;2.50;;;5.60;81.20;;;;;;5056358;28;20369;-71
2021/04/02 06:18:57;;;;;;;11.00;2.67;;;5.70;81.30;;;;;;5056237;28;20076;-71
2021/04/02 06:21:26;;;;;;;5.57;2.25;;;5.70;81.00;;;;;;5056536;28;20090;-71
2021/04/02 06:23:52;;;;;;;13.50;2.47;;;5.70;80.30;;;;;;5056314;28;20041;-71
2021/04/02 06:26:17;;;;;;;7.82;2.60;;;5.80;80.60;;;;;;5056101;28;20070;-71
2021/04/02 06:28:43;;;;;;;10.85;2.38;;;5.70;80.70;;;;;;5056359;28;20495;-71
2021/04/02 06:31:15;;;;;;;8.95;2.20;;;5.70;80.70;;;;;;5056217;28;20068;-71
2021/04/02 06:33:52;;;;;;;7.82;3.10;;;5.70;81.20;;;;;;5056193;28;20033;-71
2021/04/02 06:36:24;;;;;;;6.30;2.17;;;5.70;80.60;;;;;;5055846;28;20040;-70
2021/04/02 06:39:03;;;;;;;15.30;2.45;;;5.80;79.90;;;;;;5056637;28;20053;-71
2021/04/02 06:41:31;;;;;;;15.10;3.78;;;5.80;80.30;;;;;;5056390;28;20041;-71
2021/04/02 06:43:59;;;;;;;9.02;2.90;;;5.80;80.50;;;;;;5055958;28;20064;-71
2021/04/02 06:46:28;;;;;;;10.27;2.55;;;5.90;79.20;;;;;;5038170;28;20076;-71
2021/04/02 06:48:55;;;;;;;8.73;2.50;;;5.90;78.80;;;;;;5056028;28;20130;-71
2021/04/02 06:51:23;;;;;;;7.95;2.53;;;6.00;79.30;;;;;;5055622;28;20091;-71
2021/04/02 06:53:55;;;;;;;12.43;2.40;;;6.00;79.00;;;;;;5055899;28;20045;-71
2021/04/02 06:56:21;;;;;;;16.33;2.67;;;6.00;78.00;;;;;;5055582;28;20402;-71
2021/04/02 06:58:49;;;;;;;7.88;1.98;;;6.10;78.10;;;;;;5055483;28;20072;-71
2021/04/02 07:01:17;;;;;;;9.18;2.17;;;6.10;77.50;;;;;;5055600;28;20041;-71
2021/04/02 07:03:44;;;;;;;8.02;1.95;;;6.20;78.20;;;;;;5055491;28;20439;-71
2021/04/02 07:06:11;;;;;;;11.63;2.63;;;6.20;77.90;;;;;;5055109;28;20115;-71
2021/04/02 07:08:41;;;;;;;8.85;1.80;;;6.20;78.00;;;;;;5055375;28;20033;-71
2021/04/02 07:11:10;;;;;;;9.60;2.38;;;6.20;77.00;;;;;;5055336;28;20060;-71
2021/04/02 07:13:42;;;;;;;9.65;2.13;;;6.20;77.40;;;;;;5055290;28;20041;-71
2021/04/02 07:16:10;;;;;;;9.27;1.95;;;6.20;76.70;;;;;;5055486;28;20033;-71
2021/04/02 07:18:38;;;;;;;7.15;1.85;;;6.30;77.10;;;;;;5037278;28;20040;-71
2021/04/02 07:21:05;;;;;;;6.85;2.08;;;6.40;76.60;;;;;;5054566;28;20045;-71
2021/04/02 07:23:32;;;;;;;11.75;2.30;;;6.40;76.20;;;;;;5055533;28;20040;-70
2021/04/02 07:25:58;;;;;;;11.65;2.47;;;6.40;75.90;;;;;;5055184;28;20187;-71
2021/04/02 07:28:27;;;;;;;10.50;2.25;;;6.50;75.80;;;;;;5055250;28;20033;-72
2021/04/02 07:30:54;;;;;;;7.75;2.05;;;6.40;74.80;;;;;;5055015;28;20041;-71
2021/04/02 07:33:20;;;;;;;6.95;1.83;;;6.50;75.40;;;;;;5054965;28;20099;-71
2021/04/02 07:36:01;;;;;;;10.88;2.95;;;6.50;75.10;;;;;;5054657;28;20053;-71
2021/04/02 07:38:34;;;;;;;8.27;2.08;;;6.40;74.40;;;;;;5055198;28;20091;-72
2021/04/02 07:41:08;;;;;;;12.88;3.58;;;6.50;75.70;;;;;;5054967;28;20500;-71
2021/04/02 07:43:41;;;;;;;8.68;1.58;;;6.40;75.30;;;;;;5054795;28;20083;-71
2021/04/02 07:46:15;;;;;;;8.97;2.00;;;6.50;75.10;;;;;;5054658;28;20040;-71
2021/04/02 07:48:42;;;;;;;8.07;2.42;;;6.50;75.00;;;;;;5054775;28;20333;-71
2021/04/02 07:51:08;;;;;;;7.72;1.90;;;6.60;75.00;;;;;;5054790;28;20397;-70
2021/04/02 07:53:33;;;;;;;7.55;2.00;;;6.70;75.40;;;;;;5055140;28;20033;-70
2021/04/02 07:56:07;;;;;;;11.13;2.50;;;6.70;75.80;;;;;;5054291;28;20075;-70
2021/04/02 07:58:38;;;;;;;7.38;2.03;;;6.60;74.60;;;;;;5037084;28;20033;-70
2021/04/02 08:01:03;;;;;;;10.30;2.53;;;6.70;74.50;;;;;;5054670;28;20095;-70
2021/04/02 08:03:32;;;;;;;13.70;2.35;;;6.60;74.70;;;;;;5036856;28;20392;-71
2021/04/02 08:06:05;;;;;;;8.13;1.92;;;6.70;75.20;;;;;;5054116;28;20079;-71
2021/04/02 08:08:42;;;;;;;8.20;2.05;;;6.90;74.60;;;;;;5054506;28;20040;-70
2021/04/02 08:11:16;;;;;;;9.75;2.30;;;6.90;74.60;;;;;;5054096;28;20041;-70
2021/04/02 08:13:52;;;;;;;13.95;2.63;;;6.90;74.40;;;;;;5054191;28;20083;-71
2021/04/02 08:16:52;;;;;;;9.50;1.90;;;6.90;74.80;;;;;;5054182;28;20028;-70
2021/04/02 08:19:26;;;;;;;12.10;2.38;;;6.90;74.80;;;;;;5054045;28;20037;-70
2021/04/02 08:21:55;;;;;;;7.18;2.20;;;6.80;74.70;;;;;;5054043;28;20480;-71
2021/04/02 08:24:25;;;;;;;7.47;1.90;;;6.80;74.10;;;;;;5053982;28;20414;-71
2021/04/02 08:26:52;;;;;;;14.98;3.40;;;7.00;74.40;;;;;;5053758;28;20043;-71
2021/04/02 08:29:19;;;;;;;7.53;2.22;;;7.30;74.00;;;;;;5054172;28;20037;-71
2021/04/02 08:31:54;;;;;;;8.18;2.15;;;7.60;73.90;;;;;;5053983;28;20084;-71
2021/04/02 08:34:22;;;;;;;12.27;2.80;;;7.60;72.60;;;;;;5052985;28;20099;-71
2021/04/02 08:36:49;;;;;;;13.18;2.05;;;7.60;72.50;;;;;;5053473;28;20132;-71
2021/04/02 08:39:17;;;;;;;13.85;2.45;;;7.60;72.90;;;;;;5054089;28;20033;-71
2021/04/02 08:41:44;;;;;;;13.02;2.70;;;7.60;73.60;;;;;;5053737;28;20503;-70
2021/04/02 08:44:10;;;;;;;12.70;2.33;;;7.60;73.40;;;;;;5053670;28;20037;-71
2021/04/02 08:46:43;;;;;;;11.68;2.28;;;7.50;73.80;;;;;;5019267;28;20045;-70
2021/04/02 08:49:12;;;;;;;14.95;2.58;;;7.50;74.20;;;;;;5053829;28;20033;-71
2021/04/02 08:51:38;;;;;;;11.02;2.90;;;7.70;73.60;;;;;;5053659;28;20044;-70
2021/04/02 08:54:10;;;;;;;15.35;2.35;;;7.40;73.60;;;;;;5053855;28;20431;-70
2021/04/02 08:56:36;;;;;;;11.13;2.17;;;7.40;74.50;;;;;;5053423;28;20477;-70
2021/04/02 08:59:06;;;;;;;12.10;1.92;;;7.30;74.30;;;;;;5053221;28;20115;-70
2021/04/02 09:01:32;;;;;;;8.80;1.70;;;7.30;74.90;;;;;;5053484;28;20116;-70
2021/04/02 09:03:58;;;;;;;15.68;2.40;;;7.30;75.40;;;;;;5053710;28;20064;-70
2021/04/02 09:06:24;;;;;;;12.13;2.30;;;7.30;75.70;;;;;;5053274;28;20036;-70
2021/04/02 09:08:50;;;;;;;10.32;2.40;;;7.30;76.00;;;;;;5053225;28;20033;-70
2021/04/02 09:11:16;;;;;;;5.85;2.10;;;7.40;75.90;;;;;;5035604;28;20037;-70
2021/04/02 09:13:43;;;;;;;8.95;2.08;;;7.40;76.30;;;;;;5053131;28;20470;-70
2021/04/02 09:16:14;;;;;;;8.95;1.80;;;7.30;76.20;;;;;;5052932;28;20066;-70
2021/04/02 09:18:50;;;;;;;11.27;2.53;;;7.30;76.20;;;;;;5053070;28;20036;-71
2021/04/02 09:21:17;;;;;;;23.05;2.85;;;7.40;76.50;;;;;;5053659;28;20041;-71
2021/04/02 09:23:45;;;;;;;10.18;2.92;;;7.50;75.90;;;;;;5053682;28;20048;-71
2021/04/02 09:26:13;;;;;;;13.30;2.28;;;7.30;76.00;;;;;;5052897;28;20477;-71
2021/04/02 09:28:38;;;;;;;7.88;1.52;;;7.20;76.10;;;;;;5053003;28;20040;-71
2021/04/02 09:31:21;;;;;;;9.07;1.75;;;7.40;75.30;;;;;;5053137;28;20397;-71
2021/04/02 09:33:50;;;;;;;10.38;2.58;;;7.40;75.90;;;;;;5053368;28;20476;-71
2021/04/02 09:36:17;;;;;;;8.80;2.70;;;7.40;75.60;;;;;;5052925;28;20149;-71
2021/04/02 09:38:43;;;;;;;11.88;1.90;;;7.30;75.00;;;;;;5053136;28;20401;-71
2021/04/02 09:41:13;;;;;;;9.93;2.10;;;7.20;75.10;;;;;;5052907;28;20048;-71
2021/04/02 09:43:53;;;;;;;7.93;1.85;;;7.30;75.80;;;;;;5052927;28;20041;-71
2021/04/02 09:46:30;;;;;;;6.53;2.05;;;7.30;75.60;;;;;;5056714;28;20037;-71
2021/04/02 09:49:20;;;;;;;11.55;2.42;;;7.50;75.60;;;;;;5057145;28;20095;-71
2021/04/02 09:51:52;;;;;;;12.13;2.85;;;7.50;76.50;;;;;;5049429;28;20484;-71
2021/04/02 09:54:18;;;;;;;10.55;2.42;;;7.40;76.20;;;;;;5056794;28;20448;-71
2021/04/02 09:56:48;;;;;;;12.98;2.65;;;7.40;76.80;;;;;;5056537;28;20037;-71
2021/04/02 09:59:14;;;;;;;13.00;2.20;;;7.20;77.00;;;;;;5056755;28;20488;-71
2021/04/02 10:01:41;;;;;;;13.27;2.13;;;7.20;77.90;;;;;;5056695;28;20041;-71
2021/04/02 10:04:08;;;;;;;12.93;2.92;;;7.10;77.90;;;;;;5056769;28;20037;-71
2021/04/02 10:06:35;;;;;;;16.38;2.47;;;7.10;78.10;;;;;;5038450;28;20045;-71
2021/04/02 10:09:04;;;;;;;15.27;3.13;;;7.10;78.60;;;;;;5056707;28;20065;-71
2021/04/02 10:11:30;;;;;;;10.77;2.30;;;7.20;78.50;;;;;;5056642;28;20041;-71
2021/04/02 10:13:56;;;;;;;11.77;2.15;;;7.20;78.30;;;;;;5056395;28;20048;-71
2021/04/02 10:16:21;;;;;;;10.02;2.80;;;7.20;78.20;;;;;;5056206;28;20033;-71
2021/04/02 10:18:48;;;;;;;8.75;2.40;;;7.20;78.00;;;;;;5056384;28;20376;-70
2021/04/02 10:21:15;;;;;;;12.00;2.03;;;7.20;78.30;;;;;;5056582;28;20114;-70
2021/04/02 10:23:41;;;;;;;13.70;1.92;;;7.20;77.40;;;;;;5056223;28;20040;-71
2021/04/02 10:26:07;;;;;;;8.55;2.40;;;7.40;77.50;;;;;;5055979;28;20404;-71
2021/04/02 10:28:33;;;;;;;11.65;2.65;;;7.50;76.70;;;;;;5056891;28;20064;-71
2021/04/02 10:30:59;;;;;;;8.98;2.15;;;7.50;75.50;;;;;;5056094;28;20425;-71
2021/04/02 10:33:25;;;;;;;11.20;2.60;;;7.40;76.10;;;;;;5056286;28;20059;-71
2021/04/02 10:35:51;;;;;;;15.75;2.63;;;7.50;76.00;;;;;;5055731;28;20116;-71
2021/04/02 10:38:17;;;;;;;9.07;2.03;;;7.40;76.60;;;;;;5056402;28;20036;-71
2021/04/02 10:40:43;;;;;;;11.50;2.72;;;7.30;77.10;;;;;;5056377;28;20125;-71
2021/04/02 10:43:09;;;;;;;12.13;2.45;;;7.30;78.60;;;;;;5056589;28;20040;-69
2021/04/02 10:45:36;;;;;;;11.52;2.75;;;7.20;78.30;;;;;;5038263;28;20041;-71
2021/04/02 10:48:03;;;;;;;9.95;2.13;;;7.10;78.70;;;;;;5056164;28;20033;-71
2021/04/02 10:50:30;;;;;;;10.60;2.40;;;7.30;78.30;;;;;;5055663;28;20041;-71
2021/04/02 10:52:56;;;;;;;18.42;2.30;;;7.50;77.20;;;;;;5055957;28;20456;-71
2021/04/02 10:55:23;;;;;;;6.90;2.05;;;7.50;77.10;;;;;;5055683;28;20538;-71
2021/04/02 10:57:49;;;;;;;9.95;1.77;;;7.60;77.00;;;;;;5054979;28;20086;-71
2021/04/02 11:00:17;;;;;;;18.30;2.58;;;7.30;76.30;;;;;;5055567;28;20044;-71
2021/04/02 11:02:43;;;;;;;11.52;2.13;;;7.50;76.60;;;;;;5037599;28;20071;-71
2021/04/02 11:05:10;;;;;;;8.60;2.22;;;7.20;78.10;;;;;;5054879;28;20592;-71
2021/04/02 11:07:37;;;;;;;10.52;2.60;;;7.10;79.50;;;;;;5055704;28;20119;-71
2021/04/02 11:10:08;;;;;;;7.68;2.25;;;7.10;79.90;;;;;;5055548;28;20139;-71
2021/04/02 11:12:35;;;;;;;8.88;2.42;;;7.00;80.30;;;;;;5055380;28;20107;-71
2021/04/02 11:15:01;;;;;;;7.72;2.50;;;7.10;80.70;;;;;;5055005;28;20041;-71
2021/04/02 11:17:27;;;;;;;7.97;2.10;;;7.20;79.60;;;;;;5054668;28;20082;-71
2021/04/02 11:19:54;;;;;;;14.57;2.17;;;7.10;79.00;;;;;;5055253;28;20095;-71
2021/04/02 11:22:21;;;;;;;7.55;2.10;;;7.10;78.50;;;;;;5055700;28;20090;-71
2021/04/02 11:24:47;;;;;;;11.48;2.08;;;7.20;78.40;;;;;;5054845;28;20075;-71
2021/04/02 11:27:13;;;;;;;13.57;2.60;;;7.30;77.50;;;;;;5054855;28;20443;-71
2021/04/02 11:29:39;;;;;;;11.70;2.40;;;7.10;77.40;;;;;;5055046;28;20048;-71
2021/04/02 11:32:09;;;;;;;10.48;1.90;;;7.40;77.50;;;;;;5036994;28;20040;-71
2021/04/02 11:34:36;;;;;;;8.98;2.22;;;7.40;75.20;;;;;;5054588;28;20072;-72
2021/04/02 11:37:03;;;;;;;13.30;1.80;;;7.50;74.80;;;;;;5054793;28;20033;-71
2021/04/02 11:39:29;;;;;;;7.13;2.35;;;7.50;74.40;;;;;;5054717;28;20119;-71
2021/04/02 11:41:55;;;;;;;9.18;2.42;;;7.90;74.30;;;;;;5055029;28;20174;-71
2021/04/02 11:44:21;;;;;;;6.28;1.77;;;8.00;72.70;;;;;;5055483;28;20037;-71
2021/04/02 11:46:48;;;;;;;10.10;1.90;;;7.80;72.00;;;;;;5054845;28;20059;-71
2021/04/02 11:49:14;;;;;;;5.72;1.40;;;7.80;71.00;;;;;;5054883;28;20494;-71
2021/04/02 11:51:39;;;;;;;10.25;1.75;;;7.80;71.20;;;;;;5054644;28;20094;-71
2021/04/02 11:54:05;;;;;;;8.40;1.60;;;7.80;70.70;;;;;;5054726;28;20403;-70
2021/04/02 11:56:31;;;;;;;8.70;2.28;;;7.70;70.80;;;;;;5054287;28;20041;-72
2021/04/02 11:58:57;;;;;;;11.77;1.90;;;7.80;71.30;;;;;;5054684;28;20090;-72
2021/04/02 12:01:23;;;;;;;8.32;2.10;;;7.90;70.90;;;;;;5054737;28;20097;-72
2021/04/02 12:03:48;;;;;;;24.95;2.40;;;8.00;71.00;;;;;;5054209;28;20048;-72
2021/04/02 12:06:15;;;;;;;7.00;1.65;;;8.20;70.50;;;;;;5053978;28;20506;-72
2021/04/02 12:08:40;;;;;;;5.75;1.20;;;8.30;68.20;;;;;;5054756;28;20037;-72
2021/04/02 12:11:06;;;;;;;3.40;0.90;;;8.50;66.70;;;;;;5054224;28;20354;-71
2021/04/02 12:13:32;;;;;;;4.55;0.90;;;8.80;65.20;;;;;;5054279;28;20037;-71
2021/04/02 12:15:57;;;;;;;5.38;1.23;;;8.90;64.00;;;;;;5053681;28;20040;-72
2021/04/02 12:18:23;;;;;;;9.40;0.98;;;8.90;63.50;;;;;;5053986;28;20043;-71
2021/04/02 12:20:49;;;;;;;2.22;0.80;;;8.80;64.20;;;;;;5053945;28;20087;-72
2021/04/02 12:23:15;;;;;;;5.43;1.00;;;8.90;63.40;;;;;;5053750;28;20072;-72
2021/04/02 12:25:41;;;;;;;4.05;0.82;;;8.70;62.90;;;;;;5053450;28;20045;-72
2021/04/02 12:28:06;;;;;;;5.47;1.65;;;8.60;63.00;;;;;;5053881;28;20112;-72
2021/04/02 12:30:33;;;;;;;2.30;0.75;;;8.70;63.60;;;;;;5053919;28;20068;-72
2021/04/02 12:32:59;;;;;;;3.80;1.98;;;8.80;63.50;;;;;;5053784;28;20061;-71
2021/04/02 12:35:25;;;;;;;3.83;0.73;;;8.80;63.40;;;;;;5035651;28;20037;-71
2021/04/02 12:37:51;;;;;;;5.20;1.13;;;8.80;64.50;;;;;;5053569;28;20064;-70
2021/04/02 12:40:20;;;;;;;6.60;1.35;;;8.90;64.80;;;;;;5036171;28;20457;-68
2021/04/02 12:42:46;;;;;;;50.60;5.95;;;8.90;64.70;;;;;;5053801;28;20048;-71
2021/04/02 12:45:12;;;;;;;36.88;4.57;;;8.90;64.20;;;;;;5053123;28;20377;-71
2021/04/02 12:47:39;;;;;;;5.82;1.20;;;8.90;65.20;;;;;;5053503;28;20041;-71
2021/04/02 12:50:15;;;;;;;179.18;16.52;;;8.70;65.00;;;;;;5053543;28;20073;-71
2021/04/02 12:52:41;;;;;;;223.07;24.95;;;8.90;66.20;;;;;;5035811;28;20041;-73
2021/04/02 12:55:10;;;;;;;6.40;1.60;;;8.80;65.70;;;;;;5052941;28;20484;-71
2021/04/02 12:57:36;;;;;;;9.55;1.58;;;8.80;66.30;;;;;;5035838;28;20037;-67